ANE26HK LEXJ-LEMD
Flight info
| Callsign | ANE26HK |
|---|---|
| Flight time | 0h 46m |
| Altitude | 33000 |
| Route | TITAN N864 NONTU |
| Aircraft | CRJX/M-SDFGIRWY/S |
Departure
| Time | 2026-05-06 10:28 |
|---|---|
| Airport | Seve Ballesteros-Santander Airport (LEXJ) |
Arrival
| Time | 2026-05-06 11:14 |
|---|---|
| Airport | Adolfo Suárez Madrid–Barajas Airport (LEMD) |
| Time | Latitude | Longitude | Altitude | Speed | Heading |
|---|---|---|---|---|---|
| 2026-05-06 10:17 | 43.42424 | -3.82427 | 18 ft | 0 kts | 241° |
| 2026-05-06 10:23 | 43.42423 | -3.82431 | 18 ft | 2 kts | 245° |
| 2026-05-06 10:23 | 43.42423 | -3.82440 | 18 ft | 1 kts | 293° |
| 2026-05-06 10:23 | 43.42428 | -3.82443 | 18 ft | 1 kts | 345° |
| 2026-05-06 10:24 | 43.42432 | -3.82440 | 20 ft | 1 kts | 34° |
| 2026-05-06 10:24 | 43.42461 | -3.82401 | 18 ft | 13 kts | 46° |
| 2026-05-06 10:24 | 43.42573 | -3.82304 | 19 ft | 25 kts | 37° |
| 2026-05-06 10:24 | 43.42578 | -3.82123 | 19 ft | 24 kts | 115° |
| 2026-05-06 10:25 | 43.42505 | -3.81858 | 19 ft | 22 kts | 110° |
| 2026-05-06 10:25 | 43.42443 | -3.81646 | 20 ft | 26 kts | 112° |
| 2026-05-06 10:25 | 43.42398 | -3.81481 | 20 ft | 1 kts | 110° |
| 2026-05-06 10:25 | 43.42388 | -3.81439 | 20 ft | 10 kts | 108° |
| 2026-05-06 10:26 | 43.42382 | -3.81356 | 19 ft | 5 kts | 66° |
| 2026-05-06 10:26 | 43.42419 | -3.81329 | 19 ft | 17 kts | 22° |
| 2026-05-06 10:26 | 43.42498 | -3.81197 | 21 ft | 23 kts | 103° |
| 2026-05-06 10:26 | 43.42427 | -3.80949 | 21 ft | 33 kts | 112° |
| 2026-05-06 10:27 | 43.42358 | -3.80743 | 18 ft | 19 kts | 129° |
| 2026-05-06 10:27 | 43.42335 | -3.80679 | 18 ft | 2 kts | 54° |
| 2026-05-06 10:27 | 43.42344 | -3.80673 | 18 ft | 0 kts | 338° |
| 2026-05-06 10:27 | 43.42364 | -3.80731 | 19 ft | 0 kts | 293° |
| 2026-05-06 10:28 | 43.42370 | -3.80750 | 19 ft | 16 kts | 292° |
| 2026-05-06 10:28 | 43.42519 | -3.81310 | 21 ft | 107 kts | 289° |
| 2026-05-06 10:28 | 43.42854 | -3.82560 | 254 ft | 158 kts | 292° |
| 2026-05-06 10:28 | 43.43331 | -3.83995 | 1231 ft | 168 kts | 295° |
| 2026-05-06 10:29 | 43.43837 | -3.85407 | 2496 ft | 165 kts | 295° |
| 2026-05-06 10:29 | 43.44324 | -3.86949 | 3334 ft | 193 kts | 294° |
| 2026-05-06 10:29 | 43.44914 | -3.88707 | 4291 ft | 210 kts | 295° |
| 2026-05-06 10:29 | 43.45417 | -3.90641 | 5443 ft | 217 kts | 285° |
| 2026-05-06 10:30 | 43.45747 | -3.92689 | 6644 ft | 221 kts | 282° |
| 2026-05-06 10:30 | 43.46080 | -3.94797 | 7704 ft | 228 kts | 284° |
| 2026-05-06 10:30 | 43.46489 | -3.96924 | 8793 ft | 232 kts | 288° |
| 2026-05-06 10:30 | 43.46976 | -3.99072 | 9831 ft | 238 kts | 291° |
| 2026-05-06 10:31 | 43.47329 | -4.00507 | 10463 ft | 240 kts | 292° |
| 2026-05-06 10:31 | 43.48229 | -4.02411 | 11370 ft | 241 kts | 324° |
| 2026-05-06 10:31 | 43.49792 | -4.03291 | 12238 ft | 246 kts | 344° |
| 2026-05-06 10:31 | 43.51294 | -4.04417 | 13040 ft | 254 kts | 316° |
| 2026-05-06 10:32 | 43.52605 | -4.06080 | 13896 ft | 259 kts | 319° |
| 2026-05-06 10:32 | 43.53995 | -4.07656 | 14811 ft | 258 kts | 320° |
| 2026-05-06 10:32 | 43.55390 | -4.09223 | 15626 ft | 261 kts | 321° |
| 2026-05-06 10:32 | 43.56777 | -4.10849 | 16537 ft | 257 kts | 317° |
| 2026-05-06 10:33 | 43.58081 | -4.12531 | 17459 ft | 258 kts | 315° |
| 2026-05-06 10:33 | 43.59446 | -4.14200 | 18129 ft | 265 kts | 323° |
| 2026-05-06 10:33 | 43.60764 | -4.15976 | 18671 ft | 273 kts | 298° |
| 2026-05-06 10:33 | 43.61174 | -4.18520 | 19253 ft | 280 kts | 267° |
| 2026-05-06 10:34 | 43.60538 | -4.21029 | 19913 ft | 288 kts | 240° |
| 2026-05-06 10:34 | 43.59128 | -4.23048 | 20530 ft | 297 kts | 223° |
| 2026-05-06 10:34 | 43.57498 | -4.24851 | 21126 ft | 302 kts | 219° |
| 2026-05-06 10:34 | 43.55794 | -4.26575 | 21680 ft | 306 kts | 217° |
| 2026-05-06 10:35 | 43.54020 | -4.28243 | 22229 ft | 310 kts | 216° |
| 2026-05-06 10:35 | 43.52158 | -4.29799 | 22757 ft | 315 kts | 207° |
| 2026-05-06 10:35 | 43.50003 | -4.30407 | 23233 ft | 324 kts | 176° |
| 2026-05-06 10:35 | 43.47807 | -4.29727 | 23771 ft | 325 kts | 163° |
| 2026-05-06 10:36 | 43.45642 | -4.28943 | 24244 ft | 326 kts | 168° |
| 2026-05-06 10:36 | 43.43383 | -4.28535 | 24656 ft | 329 kts | 177° |
| 2026-05-06 10:36 | 43.41077 | -4.28441 | 25036 ft | 332 kts | 179° |
| 2026-05-06 10:36 | 43.38750 | -4.28404 | 25428 ft | 336 kts | 179° |
| 2026-05-06 10:37 | 43.36401 | -4.28330 | 25835 ft | 338 kts | 178° |
| 2026-05-06 10:37 | 43.34045 | -4.28176 | 26242 ft | 340 kts | 176° |
| 2026-05-06 10:37 | 43.31671 | -4.28012 | 26592 ft | 342 kts | 177° |
| 2026-05-06 10:37 | 43.29278 | -4.27862 | 26850 ft | 346 kts | 177° |
| 2026-05-06 10:38 | 43.26838 | -4.27714 | 26962 ft | 355 kts | 177° |
| 2026-05-06 10:38 | 43.24340 | -4.27556 | 27011 ft | 364 kts | 177° |
| 2026-05-06 10:38 | 43.21772 | -4.27397 | 27036 ft | 374 kts | 177° |
| 2026-05-06 10:38 | 43.19140 | -4.27237 | 27041 ft | 383 kts | 177° |
| 2026-05-06 10:39 | 43.16445 | -4.27077 | 27035 ft | 392 kts | 177° |
| 2026-05-06 10:39 | 43.13687 | -4.26905 | 27039 ft | 400 kts | 177° |
| 2026-05-06 10:39 | 43.10876 | -4.26730 | 27034 ft | 408 kts | 178° |
| 2026-05-06 10:39 | 43.08050 | -4.26559 | 27035 ft | 416 kts | 177° |
| 2026-05-06 10:40 | 43.05134 | -4.26374 | 27030 ft | 423 kts | 177° |
| 2026-05-06 10:40 | 43.02169 | -4.26192 | 27023 ft | 429 kts | 177° |
| 2026-05-06 10:40 | 42.99171 | -4.26006 | 27027 ft | 435 kts | 177° |
| 2026-05-06 10:40 | 42.96133 | -4.25814 | 27027 ft | 440 kts | 177° |
| 2026-05-06 10:41 | 42.93051 | -4.25621 | 27011 ft | 445 kts | 178° |
| 2026-05-06 10:41 | 42.89943 | -4.25425 | 27014 ft | 449 kts | 178° |
| 2026-05-06 10:41 | 42.86809 | -4.25239 | 27014 ft | 453 kts | 178° |
| 2026-05-06 10:41 | 42.83631 | -4.25040 | 27012 ft | 460 kts | 178° |
| 2026-05-06 10:42 | 42.80405 | -4.24844 | 27013 ft | 467 kts | 178° |
| 2026-05-06 10:42 | 42.77137 | -4.24642 | 27011 ft | 473 kts | 178° |
| 2026-05-06 10:42 | 42.73833 | -4.24437 | 27012 ft | 476 kts | 178° |
| 2026-05-06 10:42 | 42.70516 | -4.24235 | 27013 ft | 477 kts | 178° |
| 2026-05-06 10:43 | 42.67251 | -4.24028 | 27001 ft | 473 kts | 178° |
| 2026-05-06 10:43 | 42.63973 | -4.23831 | 26998 ft | 468 kts | 178° |
| 2026-05-06 10:43 | 42.60736 | -4.23629 | 26992 ft | 464 kts | 178° |
| 2026-05-06 10:44 | 42.54264 | -4.23238 | 26991 ft | 466 kts | 178° |
| 2026-05-06 10:44 | 42.51026 | -4.23026 | 26987 ft | 466 kts | 178° |
| 2026-05-06 10:44 | 42.47787 | -4.22795 | 26991 ft | 467 kts | 178° |
| 2026-05-06 10:44 | 42.44539 | -4.22575 | 26995 ft | 467 kts | 178° |
| 2026-05-06 10:45 | 42.41293 | -4.22377 | 26996 ft | 467 kts | 179° |
| 2026-05-06 10:45 | 42.38040 | -4.22188 | 26996 ft | 468 kts | 179° |
| 2026-05-06 10:45 | 42.34784 | -4.21997 | 26996 ft | 468 kts | 179° |
| 2026-05-06 10:45 | 42.31532 | -4.21798 | 26993 ft | 468 kts | 179° |
| 2026-05-06 10:46 | 42.28268 | -4.21589 | 26996 ft | 469 kts | 179° |
| 2026-05-06 10:46 | 42.25049 | -4.21399 | 26996 ft | 469 kts | 179° |
| 2026-05-06 10:46 | 42.21790 | -4.21208 | 27002 ft | 469 kts | 179° |
| 2026-05-06 10:46 | 42.18530 | -4.21014 | 27001 ft | 469 kts | 179° |
| 2026-05-06 10:47 | 42.15260 | -4.20814 | 27002 ft | 469 kts | 179° |
| 2026-05-06 10:47 | 42.11996 | -4.20614 | 26989 ft | 469 kts | 179° |
| 2026-05-06 10:47 | 42.08725 | -4.20405 | 26993 ft | 469 kts | 180° |
| 2026-05-06 10:47 | 42.05463 | -4.20210 | 26997 ft | 469 kts | 180° |
| 2026-05-06 10:48 | 42.02201 | -4.20022 | 26999 ft | 469 kts | 180° |
| 2026-05-06 10:48 | 41.98931 | -4.19834 | 27005 ft | 469 kts | 180° |
| 2026-05-06 10:48 | 41.95704 | -4.19640 | 27002 ft | 470 kts | 180° |
| 2026-05-06 10:48 | 41.92435 | -4.19440 | 27011 ft | 470 kts | 180° |
| 2026-05-06 10:49 | 41.89167 | -4.19238 | 26998 ft | 470 kts | 180° |
| 2026-05-06 10:49 | 41.85897 | -4.19039 | 26997 ft | 470 kts | 180° |
| 2026-05-06 10:49 | 41.82620 | -4.18847 | 26995 ft | 470 kts | 180° |
| 2026-05-06 10:49 | 41.79345 | -4.18657 | 27004 ft | 471 kts | 180° |
| 2026-05-06 10:50 | 41.76118 | -4.18467 | 27003 ft | 471 kts | 180° |
| 2026-05-06 10:50 | 41.72841 | -4.18268 | 26959 ft | 472 kts | 180° |
| 2026-05-06 10:50 | 41.69561 | -4.18072 | 26790 ft | 472 kts | 181° |
| 2026-05-06 10:50 | 41.66288 | -4.17869 | 26603 ft | 468 kts | 180° |
| 2026-05-06 10:51 | 41.63038 | -4.17677 | 26351 ft | 466 kts | 181° |
| 2026-05-06 10:51 | 41.59800 | -4.17494 | 25900 ft | 464 kts | 180° |
| 2026-05-06 10:51 | 41.56581 | -4.17309 | 25446 ft | 462 kts | 180° |
| 2026-05-06 10:51 | 41.53377 | -4.17117 | 25020 ft | 459 kts | 180° |
| 2026-05-06 10:52 | 41.50204 | -4.16937 | 24518 ft | 456 kts | 181° |
| 2026-05-06 10:52 | 41.47051 | -4.17048 | 24019 ft | 449 kts | 187° |
| 2026-05-06 10:52 | 41.43959 | -4.17451 | 23536 ft | 444 kts | 189° |
| 2026-05-06 10:52 | 41.40901 | -4.17914 | 22961 ft | 441 kts | 189° |
| 2026-05-06 10:53 | 41.37859 | -4.18336 | 22413 ft | 438 kts | 188° |
| 2026-05-06 10:53 | 41.34831 | -4.18672 | 21895 ft | 435 kts | 187° |
| 2026-05-06 10:53 | 41.31828 | -4.19007 | 21398 ft | 432 kts | 187° |
| 2026-05-06 10:53 | 41.28846 | -4.19350 | 20920 ft | 429 kts | 187° |
| 2026-05-06 10:54 | 41.25912 | -4.19635 | 20496 ft | 426 kts | 186° |
| 2026-05-06 10:54 | 41.22959 | -4.19826 | 20072 ft | 424 kts | 185° |
| 2026-05-06 10:54 | 41.20022 | -4.19992 | 19645 ft | 422 kts | 185° |
| 2026-05-06 10:54 | 41.17095 | -4.20174 | 19230 ft | 419 kts | 185° |
| 2026-05-06 10:55 | 41.14188 | -4.20350 | 18829 ft | 418 kts | 184° |
| 2026-05-06 10:55 | 41.11287 | -4.20524 | 18443 ft | 416 kts | 184° |
| 2026-05-06 10:55 | 41.08404 | -4.20702 | 18046 ft | 414 kts | 184° |
| 2026-05-06 10:55 | 41.05535 | -4.20872 | 17658 ft | 411 kts | 184° |
| 2026-05-06 10:56 | 41.02681 | -4.21047 | 17271 ft | 409 kts | 184° |
| 2026-05-06 10:56 | 40.99840 | -4.21221 | 16918 ft | 407 kts | 184° |
| 2026-05-06 10:56 | 40.97016 | -4.21387 | 16586 ft | 405 kts | 184° |
| 2026-05-06 10:56 | 40.94211 | -4.21559 | 16241 ft | 403 kts | 184° |
| 2026-05-06 10:57 | 40.91410 | -4.21730 | 15914 ft | 401 kts | 184° |
| 2026-05-06 10:57 | 40.88633 | -4.21905 | 15599 ft | 399 kts | 183° |
| 2026-05-06 10:57 | 40.85860 | -4.22068 | 15285 ft | 397 kts | 183° |
| 2026-05-06 10:57 | 40.83107 | -4.22230 | 14969 ft | 396 kts | 183° |
| 2026-05-06 10:58 | 40.80361 | -4.22395 | 14651 ft | 394 kts | 183° |
| 2026-05-06 10:58 | 40.77636 | -4.22559 | 14417 ft | 390 kts | 182° |
| 2026-05-06 10:58 | 40.74961 | -4.22717 | 14191 ft | 387 kts | 182° |
| 2026-05-06 10:58 | 40.72293 | -4.22878 | 14083 ft | 381 kts | 182° |
| 2026-05-06 10:59 | 40.69665 | -4.23033 | 14031 ft | 377 kts | 182° |
| 2026-05-06 10:59 | 40.67022 | -4.23190 | 14016 ft | 384 kts | 182° |
| 2026-05-06 10:59 | 40.64329 | -4.23354 | 14005 ft | 390 kts | 182° |
| 2026-05-06 10:59 | 40.61600 | -4.23515 | 14002 ft | 395 kts | 182° |
| 2026-05-06 11:00 | 40.58839 | -4.23608 | 13990 ft | 398 kts | 176° |
| 2026-05-06 11:00 | 40.56174 | -4.22683 | 13845 ft | 398 kts | 154° |
| 2026-05-06 11:00 | 40.53979 | -4.20495 | 13180 ft | 398 kts | 130° |
| 2026-05-06 11:00 | 40.52356 | -4.17558 | 12645 ft | 395 kts | 123° |
| 2026-05-06 11:01 | 40.50878 | -4.14590 | 12167 ft | 390 kts | 122° |
| 2026-05-06 11:01 | 40.49464 | -4.11647 | 12122 ft | 369 kts | 122° |
| 2026-05-06 11:01 | 40.48130 | -4.08859 | 11967 ft | 352 kts | 121° |
| 2026-05-06 11:01 | 40.46853 | -4.06178 | 11614 ft | 341 kts | 121° |
| 2026-05-06 11:02 | 40.45605 | -4.03546 | 11118 ft | 338 kts | 122° |
| 2026-05-06 11:02 | 40.44368 | -4.00937 | 10685 ft | 336 kts | 122° |
| 2026-05-06 11:02 | 40.43136 | -3.98337 | 10241 ft | 333 kts | 122° |
| 2026-05-06 11:02 | 40.41915 | -3.95760 | 9889 ft | 328 kts | 122° |
| 2026-05-06 11:03 | 40.40752 | -3.93311 | 9887 ft | 313 kts | 122° |
| 2026-05-06 11:03 | 40.39626 | -3.90922 | 9874 ft | 302 kts | 122° |
| 2026-05-06 11:03 | 40.38556 | -3.88609 | 9752 ft | 292 kts | 121° |
| 2026-05-06 11:03 | 40.37511 | -3.86334 | 9413 ft | 290 kts | 121° |
| 2026-05-06 11:04 | 40.36476 | -3.84073 | 9047 ft | 288 kts | 121° |
| 2026-05-06 11:04 | 40.35442 | -3.81818 | 8737 ft | 288 kts | 121° |
| 2026-05-06 11:04 | 40.34413 | -3.79582 | 8424 ft | 289 kts | 121° |
| 2026-05-06 11:04 | 40.33371 | -3.77322 | 8178 ft | 288 kts | 121° |
| 2026-05-06 11:05 | 40.32357 | -3.75124 | 8148 ft | 276 kts | 121° |
| 2026-05-06 11:05 | 40.31361 | -3.72961 | 7669 ft | 276 kts | 121° |
| 2026-05-06 11:05 | 40.30332 | -3.70729 | 7169 ft | 297 kts | 121° |
| 2026-05-06 11:05 | 40.29269 | -3.68427 | 6969 ft | 291 kts | 121° |
| 2026-05-06 11:06 | 40.28241 | -3.66202 | 6875 ft | 280 kts | 121° |
| 2026-05-06 11:06 | 40.27244 | -3.64065 | 6823 ft | 270 kts | 124° |
| 2026-05-06 11:06 | 40.25878 | -3.62501 | 6778 ft | 259 kts | 156° |
| 2026-05-06 11:06 | 40.24278 | -3.61539 | 6770 ft | 251 kts | 143° |
| 2026-05-06 11:07 | 40.23313 | -3.59726 | 6754 ft | 243 kts | 105° |
| 2026-05-06 11:07 | 40.23260 | -3.57569 | 6792 ft | 235 kts | 84° |
| 2026-05-06 11:07 | 40.23409 | -3.55487 | 6824 ft | 226 kts | 83° |
| 2026-05-06 11:07 | 40.23582 | -3.53484 | 6825 ft | 215 kts | 82° |
| 2026-05-06 11:08 | 40.23916 | -3.51657 | 6776 ft | 201 kts | 57° |
| 2026-05-06 11:08 | 40.24791 | -3.50328 | 6699 ft | 191 kts | 45° |
| 2026-05-06 11:08 | 40.25702 | -3.49073 | 6528 ft | 185 kts | 45° |
| 2026-05-06 11:08 | 40.26655 | -3.47977 | 6227 ft | 184 kts | 35° |
| 2026-05-06 11:09 | 40.27695 | -3.47018 | 5830 ft | 182 kts | 33° |
| 2026-05-06 11:09 | 40.28747 | -3.46101 | 5430 ft | 181 kts | 32° |
| 2026-05-06 11:09 | 40.29795 | -3.45218 | 4922 ft | 178 kts | 32° |
| 2026-05-06 11:09 | 40.30925 | -3.44671 | 4465 ft | 169 kts | 1° |
| 2026-05-06 11:10 | 40.32030 | -3.44685 | 4287 ft | 148 kts | 0° |
| 2026-05-06 11:10 | 40.33040 | -3.44682 | 4213 ft | 154 kts | 1° |
| 2026-05-06 11:10 | 40.34183 | -3.44660 | 4226 ft | 172 kts | 1° |
| 2026-05-06 11:10 | 40.35396 | -3.44791 | 4214 ft | 184 kts | 341° |
| 2026-05-06 11:11 | 40.36500 | -3.45631 | 4249 ft | 178 kts | 328° |
| 2026-05-06 11:11 | 40.37457 | -3.46425 | 4311 ft | 150 kts | 327° |
| 2026-05-06 11:11 | 40.38299 | -3.47216 | 4058 ft | 148 kts | 323° |
| 2026-05-06 11:11 | 40.39112 | -3.48033 | 3823 ft | 146 kts | 322° |
| 2026-05-06 11:12 | 40.39902 | -3.48858 | 3599 ft | 144 kts | 322° |
| 2026-05-06 11:12 | 40.40690 | -3.49669 | 3398 ft | 143 kts | 322° |
| 2026-05-06 11:12 | 40.41466 | -3.50474 | 3180 ft | 144 kts | 322° |
| 2026-05-06 11:12 | 40.42303 | -3.51314 | 2977 ft | 157 kts | 324° |
| 2026-05-06 11:13 | 40.43190 | -3.52182 | 2795 ft | 163 kts | 323° |
| 2026-05-06 11:13 | 40.44068 | -3.53069 | 2544 ft | 148 kts | 322° |
| 2026-05-06 11:13 | 40.44855 | -3.53872 | 2265 ft | 148 kts | 320° |
| 2026-05-06 11:13 | 40.45715 | -3.54765 | 2160 ft | 165 kts | 321° |
| 2026-05-06 11:14 | 40.46614 | -3.55686 | 2025 ft | 160 kts | 320° |
| 2026-05-06 11:14 | 40.47425 | -3.56518 | 1980 ft | 130 kts | 323° |
| 2026-05-06 11:14 | 40.47957 | -3.57066 | 1981 ft | 60 kts | 321° |
| 2026-05-06 11:14 | 40.48148 | -3.57363 | 1982 ft | 34 kts | 295° |
| 2026-05-06 11:15 | 40.48144 | -3.57496 | 1981 ft | 7 kts | 207° |
| 2026-05-06 11:15 | 40.48086 | -3.57464 | 1982 ft | 16 kts | 142° |
| 2026-05-06 11:15 | 40.47998 | -3.57374 | 1982 ft | 13 kts | 142° |
| 2026-05-06 11:15 | 40.47945 | -3.57343 | 1981 ft | 13 kts | 183° |
| 2026-05-06 11:16 | 40.47919 | -3.57397 | 1980 ft | 8 kts | 288° |
| 2026-05-06 11:16 | 40.47957 | -3.57453 | 1979 ft | 6 kts | 320° |
| 2026-05-06 11:16 | 40.47980 | -3.57478 | 1981 ft | 17 kts | 320° |
| 2026-05-06 11:16 | 40.48153 | -3.57659 | 1981 ft | 43 kts | 322° |
| 2026-05-06 11:17 | 40.48398 | -3.57894 | 1980 ft | 34 kts | 327° |
| 2026-05-06 11:17 | 40.48593 | -3.58114 | 1979 ft | 38 kts | 285° |
| 2026-05-06 11:17 | 40.48597 | -3.58491 | 1980 ft | 41 kts | 270° |
| 2026-05-06 11:17 | 40.48597 | -3.58690 | 1979 ft | 29 kts | 270° |
| 2026-05-06 11:18 | 40.48703 | -3.58828 | 1983 ft | 21 kts | 0° |
| 2026-05-06 11:18 | 40.48857 | -3.58827 | 1979 ft | 23 kts | 0° |
| 2026-05-06 11:18 | 40.49023 | -3.58826 | 1982 ft | 25 kts | 0° |
| 2026-05-06 11:18 | 40.49203 | -3.58825 | 1979 ft | 27 kts | 359° |
| 2026-05-06 11:19 | 40.49395 | -3.58829 | 1981 ft | 28 kts | 359° |
| 2026-05-06 11:19 | 40.49596 | -3.58828 | 1979 ft | 30 kts | 360° |
| 2026-05-06 11:19 | 40.49735 | -3.58842 | 1979 ft | 20 kts | 348° |
| 2026-05-06 11:19 | 40.49792 | -3.58849 | 1981 ft | 0 kts | 359° |